createdAt,value
2023-02-02T00:01:59.311Z,101653.34
2023-02-02T00:05:04.844Z,101656.19
2023-02-02T00:08:10.422Z,101640.88
2023-02-02T00:11:17.585Z,101635.66
2023-02-02T00:14:23.591Z,101651.06
2023-02-02T00:17:29.061Z,101649.88
2023-02-02T00:20:37.728Z,101650.91
2023-02-02T00:23:43.408Z,101661.06
2023-02-02T00:26:53.065Z,101666.31
2023-02-02T00:29:58.384Z,101658.44
2023-02-02T00:33:03.982Z,101664.13
2023-02-02T00:36:09.566Z,101667.06
2023-02-02T00:39:19.785Z,101669.06
2023-02-02T00:42:25.376Z,101668.19
2023-02-02T00:45:31.189Z,101665.50
2023-02-02T00:48:36.416Z,101667.78
2023-02-02T00:51:41.607Z,101667.28
2023-02-02T00:54:47.185Z,101664.88
2023-02-02T00:57:53.385Z,101656.75
2023-02-02T01:00:59.448Z,101675.25
2023-02-02T01:04:04.845Z,101671.50
2023-02-02T01:07:10.133Z,101672.59
2023-02-02T01:10:18.725Z,101674.63
2023-02-02T01:13:24.774Z,101672.47
2023-02-02T01:16:30.661Z,101675.44
2023-02-02T01:19:36.109Z,101685.00
2023-02-02T01:22:41.533Z,101698.34
2023-02-02T01:25:46.648Z,101689.25
2023-02-02T01:28:51.853Z,101683.72
2023-02-02T01:31:59.129Z,101693.50
2023-02-02T01:35:05.501Z,101699.06
2023-02-02T01:38:10.941Z,101703.31
2023-02-02T01:41:21.758Z,101698.41
2023-02-02T01:44:52.681Z,101693.38
2023-02-02T01:48:00.865Z,101686.41
2023-02-02T01:51:12.018Z,101686.50
2023-02-02T01:54:41.074Z,101688.03
2023-02-02T01:58:24.836Z,101690.84
2023-02-02T02:01:30.619Z,101688.41
2023-02-02T02:04:36.737Z,101685.22
2023-02-02T02:07:44.589Z,101679.97
2023-02-02T02:10:50.420Z,101692.78
2023-02-02T02:14:17.381Z,101694.44
2023-02-02T02:17:23.514Z,101699.28
2023-02-02T02:21:11.554Z,101707.09
2023-02-02T02:24:59.545Z,101691.94
2023-02-02T02:28:29.198Z,101697.75
2023-02-02T02:32:10.941Z,101694.63
2023-02-02T02:35:33.548Z,101692.72
2023-02-02T02:38:51.496Z,101696.47
2023-02-02T02:42:03.254Z,101698.19
2023-02-02T02:45:12.224Z,101700.09
2023-02-02T02:48:17.678Z,101696.38
2023-02-02T02:51:41.600Z,101695.31
2023-02-02T02:55:00.343Z,101700.75
2023-02-02T02:58:17.034Z,101693.97
2023-02-02T03:01:28.182Z,101709.34
2023-02-02T03:04:44.992Z,101717.19
2023-02-02T03:08:14.161Z,101708.53
2023-02-02T03:11:21.301Z,101703.28
2023-02-02T03:14:27.139Z,101716.50
2023-02-02T03:17:32.770Z,101711.22
2023-02-02T03:20:38.221Z,101712.88
2023-02-02T03:23:43.453Z,101712.84
2023-02-02T03:26:49.120Z,101705.50
2023-02-02T03:29:55.479Z,101706.09
2023-02-02T03:33:01.333Z,101702.84
2023-02-02T03:36:07.677Z,101707.03
2023-02-02T03:39:13.609Z,101709.13
2023-02-02T03:42:20.159Z,101711.03
2023-02-02T03:45:28.984Z,101713.31
2023-02-02T03:48:39.193Z,101729.31
2023-02-02T03:51:44.941Z,101724.31
2023-02-02T03:54:50.567Z,101712.97
2023-02-02T03:57:56.236Z,101704.13
2023-02-02T04:01:08.092Z,101706.31
2023-02-02T04:04:13.658Z,101695.72
2023-02-02T04:07:18.974Z,101692.69
2023-02-02T04:10:24.508Z,101691.03
2023-02-02T04:13:30.054Z,101694.63
2023-02-02T04:16:38.111Z,101687.22
2023-02-02T04:19:43.630Z,101682.78
2023-02-02T04:22:49.378Z,101679.88
2023-02-02T04:25:55.411Z,101681.69
2023-02-02T04:29:00.971Z,101680.84
2023-02-02T04:32:06.827Z,101691.59
2023-02-02T04:35:12.739Z,101684.72
2023-02-02T04:38:18.607Z,101693.41
2023-02-02T04:41:24.282Z,101685.94
2023-02-02T04:44:30.115Z,101691.78
2023-02-02T04:47:35.100Z,101664.44
2023-02-02T04:50:40.493Z,101689.25
2023-02-02T04:53:46.267Z,101686.13
2023-02-02T04:56:51.982Z,101680.44
2023-02-02T04:59:57.525Z,101700.16
2023-02-02T05:03:03.098Z,101704.19
2023-02-02T05:06:09.194Z,101694.53
2023-02-02T05:09:15.536Z,101704.22
2023-02-02T05:12:21.144Z,101692.06
2023-02-02T05:15:27.292Z,101702.66
2023-02-02T05:18:33.386Z,101702.81
2023-02-02T05:21:39.056Z,101701.19
2023-02-02T05:24:44.759Z,101706.94
2023-02-02T05:27:50.285Z,101695.63
2023-02-02T05:30:55.768Z,101710.13
2023-02-02T05:34:01.378Z,101712.91
2023-02-02T05:37:07.183Z,101721.88
2023-02-02T05:40:12.813Z,101719.13
2023-02-02T05:43:19.364Z,101706.25
2023-02-02T05:46:26.693Z,101721.91
2023-02-02T05:49:31.834Z,101706.16
2023-02-02T05:52:38.635Z,101698.69
2023-02-02T05:55:44.001Z,101713.06
2023-02-02T05:58:50.129Z,101729.31
2023-02-02T06:01:55.232Z,101733.47
2023-02-02T06:05:00.697Z,101716.63
2023-02-02T06:08:06.529Z,101713.88
2023-02-02T06:11:13.985Z,101719.81
2023-02-02T06:14:19.491Z,101714.41
2023-02-02T06:17:25.355Z,101698.38
2023-02-02T06:20:30.462Z,101701.19
2023-02-02T06:23:36.211Z,101714.00
2023-02-02T06:26:41.865Z,101692.69
2023-02-02T06:29:47.210Z,101700.91
2023-02-02T06:32:52.546Z,101734.31
2023-02-02T06:36:01.856Z,101705.53
2023-02-02T06:39:08.306Z,101727.94
2023-02-02T06:42:21.424Z,101730.00
2023-02-02T06:45:28.228Z,101718.81
2023-02-02T06:48:33.980Z,101729.56
2023-02-02T06:51:39.697Z,101745.59
2023-02-02T06:54:45.449Z,101737.69
2023-02-02T06:57:59.081Z,101741.44
2023-02-02T07:01:07.646Z,101749.63
2023-02-02T07:04:13.473Z,101719.47
2023-02-02T07:07:19.263Z,101752.50
2023-02-02T07:11:13.855Z,101738.91
2023-02-02T07:13:51.022Z,101748.00
2023-02-02T07:16:56.916Z,101735.44
2023-02-02T07:20:02.843Z,101736.94
2023-02-02T07:23:08.724Z,101738.81
2023-02-02T07:26:17.501Z,101753.88
2023-02-02T07:29:22.663Z,101758.16
2023-02-02T07:32:28.431Z,101727.84
2023-02-02T07:35:34.062Z,101751.94
2023-02-02T07:38:39.490Z,101767.19
2023-02-02T07:41:45.092Z,101762.28
2023-02-02T07:45:27.003Z,101746.94
2023-02-02T07:48:32.247Z,101780.19
2023-02-02T07:51:39.897Z,101764.25
2023-02-02T07:54:46.431Z,101793.78
2023-02-02T07:57:55.656Z,101791.41
2023-02-02T08:01:02.756Z,101769.16
2023-02-02T08:04:08.442Z,101806.13
2023-02-02T08:07:15.094Z,101786.25
2023-02-02T08:10:20.774Z,101772.28
2023-02-02T08:13:26.821Z,101802.88
2023-02-02T08:16:33.241Z,101794.59
2023-02-02T08:19:38.507Z,101778.59
2023-02-02T08:22:44.070Z,101786.97
2023-02-02T08:25:50.753Z,101788.47
2023-02-02T08:28:59.481Z,101782.03
2023-02-02T08:32:05.233Z,101794.47
2023-02-02T08:35:10.502Z,101785.38
2023-02-02T08:38:15.992Z,101780.38
2023-02-02T08:41:24.109Z,101794.78
2023-02-02T08:45:00.748Z,101796.81
2023-02-02T08:48:10.448Z,101787.47
2023-02-02T08:51:20.602Z,101779.91
2023-02-02T08:54:26.134Z,101797.44
2023-02-02T08:57:32.898Z,101804.03
2023-02-02T09:00:38.438Z,101795.84
2023-02-02T09:03:44.754Z,101786.22
2023-02-02T09:06:50.558Z,101834.59
2023-02-02T09:09:58.448Z,101799.66
2023-02-02T09:13:04.781Z,101806.09
2023-02-02T09:16:12.262Z,101806.47
2023-02-02T09:19:18.202Z,101818.50
2023-02-02T09:22:24.138Z,101783.69
2023-02-02T09:25:29.575Z,101796.75
2023-02-02T09:28:34.899Z,101796.06
2023-02-02T09:31:40.275Z,101801.53
2023-02-02T09:34:45.720Z,101830.09
2023-02-02T09:37:51.208Z,101793.59
2023-02-02T09:40:57.122Z,101791.59
2023-02-02T09:44:39.888Z,101860.94
2023-02-02T09:47:55.865Z,101798.31
2023-02-02T09:51:10.117Z,101796.84
2023-02-02T09:54:21.135Z,101862.38
2023-02-02T09:57:32.001Z,101843.38
2023-02-02T10:00:48.361Z,101808.19
2023-02-02T10:04:06.996Z,101833.41
2023-02-02T10:07:20.260Z,101834.84
2023-02-02T10:10:35.268Z,101851.00
2023-02-02T10:13:43.882Z,101825.50
2023-02-02T10:16:52.457Z,101806.22
2023-02-02T10:20:06.784Z,101837.66
2023-02-02T10:23:25.403Z,101808.28
2023-02-02T10:26:33.645Z,101790.47
2023-02-02T10:30:00.153Z,101797.88
2023-02-02T10:33:10.386Z,101785.38
2023-02-02T10:36:37.930Z,101781.53
2023-02-02T10:39:51.981Z,101776.66
2023-02-02T10:43:34.795Z,101789.41
2023-02-02T10:46:45.854Z,101766.81
2023-02-02T10:50:02.827Z,101772.72
2023-02-02T10:53:15.858Z,101773.31
2023-02-02T10:56:37.131Z,101760.81
2023-02-02T11:00:10.550Z,101758.13
2023-02-02T11:03:20.015Z,101783.84
2023-02-02T11:06:44.469Z,101752.59
2023-02-02T11:09:49.528Z,101730.53
2023-02-02T11:12:59.499Z,101777.56
2023-02-02T11:16:15.598Z,101783.09
2023-02-02T11:19:30.189Z,101743.16
2023-02-02T11:22:38.994Z,101767.63
2023-02-02T11:25:44.261Z,101759.78
2023-02-02T11:28:51.153Z,101732.91
2023-02-02T11:31:57.222Z,101736.59
2023-02-02T11:35:03.013Z,101740.47
2023-02-02T11:38:16.871Z,101725.03
2023-02-02T11:41:22.099Z,101723.06
2023-02-02T11:44:29.756Z,101712.84
2023-02-02T11:47:35.029Z,101722.31
2023-02-02T11:50:47.594Z,101701.44
2023-02-02T11:54:16.177Z,101710.94
2023-02-02T11:57:25.401Z,101697.78
2023-02-02T12:00:31.754Z,101700.69
2023-02-02T12:03:40.472Z,101700.66
2023-02-02T12:06:46.066Z,101681.63
2023-02-02T12:09:52.347Z,101675.88
2023-02-02T12:13:07.771Z,101684.06
2023-02-02T12:16:31.628Z,101672.19
2023-02-02T12:20:28.109Z,101662.13
2023-02-02T12:23:58.587Z,101671.34
2023-02-02T12:27:19.491Z,101658.25
2023-02-02T12:30:25.406Z,101639.56
2023-02-02T12:33:47.255Z,101633.19
2023-02-02T12:37:20.586Z,101627.81
2023-02-02T12:40:44.313Z,101627.63
2023-02-02T12:44:12.121Z,101626.88
2023-02-02T12:47:41.191Z,101636.13
2023-02-02T12:51:10.614Z,101639.38
2023-02-02T12:54:47.546Z,101646.81
2023-02-02T12:58:28.035Z,101662.34
2023-02-02T13:01:33.685Z,101647.97
2023-02-02T13:05:07.137Z,101646.75
2023-02-02T13:08:47.159Z,101633.56
2023-02-02T13:12:15.095Z,101626.13
2023-02-02T13:15:24.172Z,101633.25
2023-02-02T13:18:31.953Z,101630.91
2023-02-02T13:21:39.400Z,101643.03
2023-02-02T13:24:48.584Z,101638.50
2023-02-02T13:27:54.482Z,101645.00
2023-02-02T13:31:06.209Z,101643.84
2023-02-02T13:34:23.169Z,101634.38
2023-02-02T13:37:50.659Z,101643.22
2023-02-02T13:40:59.779Z,101646.28
2023-02-02T13:44:17.686Z,101646.94
2023-02-02T13:47:54.144Z,101642.94
2023-02-02T13:51:14.153Z,101645.47
2023-02-02T13:54:40.523Z,101645.44
2023-02-02T13:58:21.227Z,101640.00
2023-02-02T14:01:27.298Z,101629.41
2023-02-02T14:04:32.496Z,101630.66
2023-02-02T14:07:43.949Z,101623.72
2023-02-02T14:10:52.046Z,101616.50
2023-02-02T14:14:28.509Z,101615.22
2023-02-02T14:17:33.348Z,101614.16
2023-02-02T14:20:49.496Z,101620.81
2023-02-02T14:23:56.430Z,101628.53
2023-02-02T14:27:07.527Z,101625.88
2023-02-02T14:30:38.996Z,101617.75
2023-02-02T14:33:47.993Z,101626.56
2023-02-02T14:37:24.052Z,101628.53
2023-02-02T14:40:52.572Z,101638.38
2023-02-02T14:44:05.501Z,101637.31
2023-02-02T14:47:46.525Z,101624.72
2023-02-02T14:50:56.630Z,101618.34
2023-02-02T14:54:06.751Z,101617.72
2023-02-02T14:57:32.861Z,101620.34
2023-02-02T15:00:38.504Z,101619.31
2023-02-02T15:03:44.737Z,101621.78
2023-02-02T15:06:55.937Z,101626.44
2023-02-02T15:10:01.518Z,101631.22
2023-02-02T15:13:12.801Z,101624.91
2023-02-02T15:16:28.993Z,101623.66
2023-02-02T15:19:44.194Z,101631.66
2023-02-02T15:23:22.693Z,101632.53
2023-02-02T15:26:35.792Z,101629.06
2023-02-02T15:29:45.471Z,101628.59
2023-02-02T15:32:52.822Z,101637.50
2023-02-02T15:36:03.981Z,101635.44
2023-02-02T15:39:36.574Z,101631.81
2023-02-02T15:42:53.647Z,101625.47
2023-02-02T15:46:10.756Z,101629.09
2023-02-02T15:49:35.765Z,101622.53
2023-02-02T15:52:50.562Z,101615.44
2023-02-02T15:55:57.971Z,101617.09
2023-02-02T15:59:03.810Z,101618.38
2023-02-02T16:02:12.044Z,101619.00
2023-02-02T16:05:48.938Z,101618.22
2023-02-02T16:08:55.158Z,101625.59
2023-02-02T16:12:02.245Z,101627.66
2023-02-02T16:15:21.154Z,101631.75
2023-02-02T16:18:27.136Z,101646.97
2023-02-02T16:21:33.728Z,101640.81
2023-02-02T16:24:47.338Z,101649.47
2023-02-02T16:27:53.286Z,101649.88
2023-02-02T16:31:02.163Z,101660.31
2023-02-02T16:34:18.560Z,101663.59
2023-02-02T16:37:27.825Z,101670.97
2023-02-02T16:40:33.106Z,101665.84
2023-02-02T16:43:43.147Z,101667.88
2023-02-02T16:46:50.065Z,101670.75
2023-02-02T16:50:28.621Z,101674.41
2023-02-02T16:53:36.401Z,101685.47
2023-02-02T16:56:49.191Z,101686.66
2023-02-02T16:59:58.011Z,101689.13
2023-02-02T17:03:13.153Z,101689.78
2023-02-02T17:06:31.266Z,101698.56
2023-02-02T17:09:46.167Z,101695.50
2023-02-02T17:12:52.018Z,101693.75
2023-02-02T17:15:58.534Z,101708.38
2023-02-02T17:19:04.280Z,101719.88
2023-02-02T17:22:16.175Z,101733.06
2023-02-02T17:25:30.390Z,101726.22
2023-02-02T17:28:37.987Z,101727.88
2023-02-02T17:31:43.411Z,101729.03
2023-02-02T17:34:48.549Z,101732.63
2023-02-02T17:37:55.281Z,101737.53
2023-02-02T17:41:02.928Z,101741.88
2023-02-02T17:44:10.554Z,101740.41
2023-02-02T17:47:15.929Z,101752.75
2023-02-02T17:50:21.940Z,101749.13
2023-02-02T17:53:32.657Z,101756.19
2023-02-02T17:56:39.576Z,101759.94
2023-02-02T17:59:45.229Z,101757.25
2023-02-02T18:02:54.674Z,101750.72
2023-02-02T18:06:03.056Z,101765.31
2023-02-02T18:09:09.925Z,101765.13
2023-02-02T18:12:15.641Z,101766.16
2023-02-02T18:15:21.014Z,101758.63
2023-02-02T18:18:27.802Z,101760.41
2023-02-02T18:21:33.254Z,101748.94
2023-02-02T18:24:38.813Z,101750.72
2023-02-02T18:27:44.259Z,101766.44
2023-02-02T18:30:49.365Z,101767.28
2023-02-02T18:33:54.720Z,101770.41
2023-02-02T18:37:00.498Z,101773.44
2023-02-02T18:40:07.983Z,101768.00
2023-02-02T18:43:13.521Z,101770.63
2023-02-02T18:46:19.094Z,101758.84
2023-02-02T18:49:24.113Z,101767.06
2023-02-02T18:52:34.276Z,101778.22
2023-02-02T18:55:39.603Z,101779.44
2023-02-02T18:58:45.072Z,101772.56
2023-02-02T19:01:51.311Z,101775.56
2023-02-02T19:05:14.795Z,101781.38
2023-02-02T19:08:20.203Z,101780.97
2023-02-02T19:11:29.274Z,101798.88
2023-02-02T19:14:38.858Z,101808.78
2023-02-02T19:17:46.433Z,101815.66
2023-02-02T19:20:52.763Z,101805.53
2023-02-02T19:23:59.962Z,101808.78
2023-02-02T19:27:16.973Z,101812.06
2023-02-02T19:30:23.982Z,101815.06
2023-02-02T19:33:42.127Z,101815.78
2023-02-02T19:36:49.487Z,101832.38
2023-02-02T19:40:22.437Z,101826.00
2023-02-02T19:43:29.857Z,101837.19
2023-02-02T19:46:45.401Z,101837.84
2023-02-02T19:49:51.717Z,101855.41
2023-02-02T19:52:57.753Z,101856.38
2023-02-02T19:56:32.538Z,101862.44
2023-02-02T19:59:38.042Z,101873.00
2023-02-02T20:02:54.696Z,101870.72
2023-02-02T20:06:00.916Z,101877.72
2023-02-02T20:09:16.246Z,101869.66
2023-02-02T20:12:31.097Z,101871.47
2023-02-02T20:15:36.870Z,101873.91
2023-02-02T20:18:46.170Z,101879.06
2023-02-02T20:21:53.490Z,101880.53
2023-02-02T20:25:06.827Z,101877.94
2023-02-02T20:28:45.673Z,101888.47
2023-02-02T20:31:55.308Z,101890.31
2023-02-02T20:35:01.021Z,101896.09
2023-02-02T20:38:29.822Z,101906.00
2023-02-02T20:41:35.159Z,101921.06
2023-02-02T20:44:41.689Z,101911.78
2023-02-02T20:47:47.441Z,101912.31
2023-02-02T20:50:52.924Z,101925.19
2023-02-02T20:53:58.693Z,101923.22
2023-02-02T20:57:04.676Z,101933.13
2023-02-02T21:00:13.584Z,101946.16
2023-02-02T21:03:18.953Z,101955.25
2023-02-02T21:06:24.420Z,101943.69
2023-02-02T21:09:29.853Z,101964.38
2023-02-02T21:12:35.663Z,101961.06
2023-02-02T21:15:41.003Z,101964.88
2023-02-02T21:18:47.489Z,101951.16
2023-02-02T21:21:53.238Z,101949.50
2023-02-02T21:24:58.811Z,101953.47
2023-02-02T21:28:04.369Z,101949.00
2023-02-02T21:31:12.744Z,101951.78
2023-02-02T21:34:20.177Z,101963.69
2023-02-02T21:37:25.417Z,101962.03
2023-02-02T21:40:34.468Z,101978.34
2023-02-02T21:43:39.942Z,101983.63
2023-02-02T21:46:47.617Z,101995.66
2023-02-02T21:49:56.092Z,101989.72
2023-02-02T21:53:24.076Z,101988.88
2023-02-02T21:56:39.795Z,101994.63
2023-02-02T21:59:46.984Z,101985.53
2023-02-02T22:02:53.693Z,101978.63
2023-02-02T22:06:27.581Z,101988.34
2023-02-02T22:09:41.508Z,101986.81
2023-02-02T22:12:46.696Z,101989.75
2023-02-02T22:15:53.326Z,101992.88
2023-02-02T22:18:59.066Z,101993.56
2023-02-02T22:22:13.687Z,101995.72
2023-02-02T22:25:21.109Z,102006.94
2023-02-02T22:28:32.776Z,101997.84
2023-02-02T22:31:38.371Z,102009.25
2023-02-02T22:34:43.925Z,102010.00
2023-02-02T22:37:49.121Z,102012.59
2023-02-02T22:40:54.936Z,102030.22
2023-02-02T22:44:00.688Z,102050.06
2023-02-02T22:47:06.043Z,102054.84
2023-02-02T22:50:11.632Z,102065.19
2023-02-02T22:53:17.326Z,102070.38
2023-02-02T22:56:23.143Z,102078.28
2023-02-02T22:59:28.633Z,102088.69
2023-02-02T23:02:33.863Z,102092.22
2023-02-02T23:05:39.192Z,102087.94
2023-02-02T23:08:44.515Z,102094.97
2023-02-02T23:11:49.946Z,102083.94
2023-02-02T23:14:55.618Z,102082.72
2023-02-02T23:18:00.914Z,102085.50
2023-02-02T23:21:06.224Z,102090.50
2023-02-02T23:24:11.191Z,102088.09
2023-02-02T23:27:16.166Z,102087.50
2023-02-02T23:30:24.917Z,102094.81
2023-02-02T23:33:31.344Z,102088.31
2023-02-02T23:36:36.848Z,102099.63
2023-02-02T23:39:41.999Z,102101.94
2023-02-02T23:42:47.504Z,102111.00
2023-02-02T23:45:53.320Z,102101.66
2023-02-02T23:49:00.753Z,102106.66
2023-02-02T23:52:06.780Z,102110.50
2023-02-02T23:55:12.259Z,102102.88
2023-02-02T23:58:19.822Z,102100.13
